Time;durP1;ratioP1;P1;durP2;ratioP2;P2;SDS_P1;SDS_P2;PMS_P1;PMS_P2;Temp;Humidity;BMP_temperature;BMP_pressure;BME280_temperature;BME280_humidity;BME280_pressure;Samples;Min_cycle;Max_cycle;Signal;HPM_P1;HPM_P2
2022/08/02 00:00:13;;;;;;;5.47;4.97;;;;;;;;;;5073830;28;20029;-73
2022/08/02 00:02:40;;;;;;;7.53;4.97;;;;;;;;;;5073918;28;20020;-72
2022/08/02 00:05:06;;;;;;;9.13;5.38;;;;;;;;;;5074028;28;20071;-72
2022/08/02 00:07:33;;;;;;;5.20;4.70;;;;;;;;;;5073898;28;20027;-72
2022/08/02 00:09:59;;;;;;;5.72;5.22;;;;;;;;;;5073833;28;20431;-72
2022/08/02 00:12:25;;;;;;;7.75;4.80;;;;;;;;;;5073711;28;20187;-72
2022/08/02 00:14:51;;;;;;;5.60;5.05;;;;;;;;;;5073542;28;20020;-71
2022/08/02 00:17:17;;;;;;;5.78;4.53;;;;;;;;;;5073648;28;20480;-72
2022/08/02 00:19:43;;;;;;;6.18;4.93;;;;;;;;;;5072393;28;20021;-72
2022/08/02 00:22:09;;;;;;;6.43;5.13;;;;;;;;;;5073453;28;20055;-72
2022/08/02 00:24:36;;;;;;;5.43;4.80;;;;;;;;;;5073460;28;20028;-72
2022/08/02 00:27:02;;;;;;;6.18;5.38;;;;;;;;;;5073544;28;20029;-72
2022/08/02 00:29:29;;;;;;;6.68;5.10;;;;;;;;;;5073360;28;20367;-72
2022/08/02 00:31:56;;;;;;;5.72;4.97;;;;;;;;;;5073859;28;20029;-72
2022/08/02 00:34:22;;;;;;;8.75;5.13;;;;;;;;;;5085676;28;20379;-72
2022/08/02 00:36:48;;;;;;;6.18;5.20;;;;;;;;;;5074324;28;20174;-72
2022/08/02 00:39:14;;;;;;;10.52;4.97;;;;;;;;;;5073528;28;20020;-72
2022/08/02 00:41:47;;;;;;;5.80;4.70;;;;;;;;;;5085985;28;20532;-72
2022/08/02 00:44:18;;;;;;;7.75;5.32;;;;;;;;;;5073026;28;20491;-72
2022/08/02 00:46:44;;;;;;;5.38;4.88;;;;;;;;;;5071446;28;20127;-72
2022/08/02 00:49:11;;;;;;;5.43;4.70;;;;;;;;;;5073199;28;20538;-72
2022/08/02 00:51:37;;;;;;;7.75;5.78;;;;;;;;;;5072862;28;20025;-72
2022/08/02 00:54:03;;;;;;;5.90;5.30;;;;;;;;;;5073158;28;20369;-72
2022/08/02 00:56:29;;;;;;;8.68;5.47;;;;;;;;;;5072980;28;20016;-72
2022/08/02 00:58:55;;;;;;;6.95;5.38;;;;;;;;;;5072777;28;20379;-72
2022/08/02 01:01:37;;;;;;;5.47;4.80;;;;;;;;;;5073096;28;20028;-72
2022/08/02 01:04:07;;;;;;;5.20;4.70;;;;;;;;;;5072807;28;20422;-72
2022/08/02 01:06:33;;;;;;;6.43;5.40;;;;;;;;;;5071665;28;20040;-73
2022/08/02 01:09:00;;;;;;;5.30;4.80;;;;;;;;;;5072700;28;20482;-73
2022/08/02 01:11:27;;;;;;;5.88;4.72;;;;;;;;;;5073125;28;20028;-72
2022/08/02 01:13:53;;;;;;;5.30;4.80;;;;;;;;;;5072552;28;20101;-72
2022/08/02 01:16:23;;;;;;;5.65;4.90;;;;;;;;;;5072801;28;20046;-72
2022/08/02 01:18:54;;;;;;;5.18;4.68;;;;;;;;;;5072944;28;20029;-72
2022/08/02 01:21:38;;;;;;;6.97;5.35;;;;;;;;;;5073173;28;20021;-72
2022/08/02 01:24:22;;;;;;;5.47;4.88;;;;;;;;;;5072688;28;20054;-72
2022/08/02 01:26:49;;;;;;;7.40;5.38;;;;;;;;;;5072610;28;20104;-73
2022/08/02 01:29:17;;;;;;;5.70;5.20;;;;;;;;;;5072604;28;20056;-72
2022/08/02 01:31:49;;;;;;;5.53;4.95;;;;;;;;;;5072793;28;20029;-71
2022/08/02 01:34:18;;;;;;;5.57;5.07;;;;;;;;;;5084594;28;20036;-72
2022/08/02 01:36:47;;;;;;;7.75;5.30;;;;;;;;;;5073971;28;20071;-72
2022/08/02 01:39:17;;;;;;;7.43;5.53;;;;;;;;;;5071270;28;20029;-72
2022/08/02 01:41:43;;;;;;;6.28;5.00;;;;;;;;;;5072297;28;20012;-72
2022/08/02 01:44:11;;;;;;;5.95;5.35;;;;;;;;;;5072668;28;20032;-71
2022/08/02 01:46:39;;;;;;;7.95;5.70;;;;;;;;;;5073605;28;20037;-71
2022/08/02 01:49:10;;;;;;;5.72;5.13;;;;;;;;;;5076538;28;20049;-71
2022/08/02 01:54:24;;;;;;;6.50;5.32;;;;;;;;;;5076464;28;20481;-72
2022/08/02 01:56:50;;;;;;;6.22;5.63;;;;;;;;;;5090435;28;20035;-72
2022/08/02 01:59:18;;;;;;;6.70;5.13;;;;;;;;;;5076394;28;20017;-71
2022/08/02 02:01:46;;;;;;;5.40;4.90;;;;;;;;;;5076112;28;20032;-72
2022/08/02 02:04:13;;;;;;;5.63;5.05;;;;;;;;;;5076613;28;20017;-72
2022/08/02 02:06:39;;;;;;;7.47;5.95;;;;;;;;;;5076257;28;20036;-72
2022/08/02 02:09:06;;;;;;;8.23;5.60;;;;;;;;;;5075917;28;20020;-72
2022/08/02 02:11:32;;;;;;;7.78;5.78;;;;;;;;;;5076398;28;20099;-72
2022/08/02 02:14:00;;;;;;;9.82;5.60;;;;;;;;;;5075819;28;20021;-72
2022/08/02 02:16:27;;;;;;;5.50;4.85;;;;;;;;;;5076094;28;20133;-72
2022/08/02 02:18:53;;;;;;;5.40;4.90;;;;;;;;;;5074482;28;20017;-72
2022/08/02 02:21:20;;;;;;;6.60;5.53;;;;;;;;;;5076155;28;20479;-71
2022/08/02 02:23:46;;;;;;;7.85;5.22;;;;;;;;;;5075935;28;20426;-72
2022/08/02 02:26:14;;;;;;;5.55;4.95;;;;;;;;;;5075683;28;20028;-72
2022/08/02 02:28:41;;;;;;;5.40;4.90;;;;;;;;;;5075699;28;20532;-71
2022/08/02 02:31:08;;;;;;;5.53;5.03;;;;;;;;;;5075666;28;20066;-72
2022/08/02 02:33:36;;;;;;;5.78;4.80;;;;;;;;;;5081729;28;20020;-72
2022/08/02 02:36:03;;;;;;;7.57;5.40;;;;;;;;;;5083021;28;20140;-72
2022/08/02 02:38:30;;;;;;;5.75;5.25;;;;;;;;;;5075486;28;20045;-72
2022/08/02 02:40:58;;;;;;;5.47;4.88;;;;;;;;;;5075724;28;20091;-72
2022/08/02 02:43:27;;;;;;;5.28;4.78;;;;;;;;;;5075460;28;20489;-72
2022/08/02 02:45:53;;;;;;;5.22;4.72;;;;;;;;;;5075293;28;20036;-72
2022/08/02 02:48:19;;;;;;;6.00;5.40;;;;;;;;;;5075342;28;20025;-72
2022/08/02 02:50:46;;;;;;;5.60;4.95;;;;;;;;;;5074135;28;20387;-73
2022/08/02 02:53:13;;;;;;;6.32;5.18;;;;;;;;;;5075319;28;20074;-73
2022/08/02 02:55:39;;;;;;;5.82;5.32;;;;;;;;;;5075237;28;20052;-72
2022/08/02 02:58:07;;;;;;;7.82;5.32;;;;;;;;;;5074622;28;20533;-71
2022/08/02 03:03:18;;;;;;;7.35;5.40;;;;;;;;;;5075569;28;20040;-73
2022/08/02 03:05:44;;;;;;;8.32;5.07;;;;;;;;;;5075293;28;20394;-73
2022/08/02 03:08:11;;;;;;;5.93;5.07;;;;;;;;;;5075182;28;20378;-73
2022/08/02 03:10:38;;;;;;;7.82;5.18;;;;;;;;;;5075452;28;20486;-73
2022/08/02 03:13:05;;;;;;;5.85;5.28;;;;;;;;;;5074866;28;20490;-71
2022/08/02 03:15:31;;;;;;;5.32;4.82;;;;;;;;;;5075045;28;20103;-71
2022/08/02 03:17:57;;;;;;;17.55;6.72;;;;;;;;;;5075062;28;20379;-71
2022/08/02 03:20:24;;;;;;;7.82;5.53;;;;;;;;;;5074860;28;20032;-71
2022/08/02 03:22:50;;;;;;;6.80;6.10;;;;;;;;;;5074702;28;20108;-71
2022/08/02 03:25:17;;;;;;;6.35;5.70;;;;;;;;;;5074720;28;20033;-71
2022/08/02 03:27:43;;;;;;;6.85;5.78;;;;;;;;;;5074587;28;20542;-71
2022/08/02 03:30:10;;;;;;;7.60;6.05;;;;;;;;;;5074619;28;20103;-71
2022/08/02 03:32:38;;;;;;;7.70;6.93;;;;;;;;;;5074733;28;20025;-72
2022/08/02 03:35:05;;;;;;;6.88;6.18;;;;;;;;;;5088575;28;20040;-72
2022/08/02 03:37:31;;;;;;;6.72;6.13;;;;;;;;;;5074691;28;20419;-71
2022/08/02 03:39:57;;;;;;;5.72;5.13;;;;;;;;;;5074835;28;20024;-71
2022/08/02 03:42:25;;;;;;;9.32;6.70;;;;;;;;;;5073042;28;20024;-71
2022/08/02 03:44:51;;;;;;;8.02;5.60;;;;;;;;;;5072966;28;20090;-71
2022/08/02 03:47:18;;;;;;;6.20;5.32;;;;;;;;;;5074411;28;20275;-71
2022/08/02 03:49:45;;;;;;;6.40;5.38;;;;;;;;;;5074238;28;20027;-73
2022/08/02 03:52:11;;;;;;;6.22;5.63;;;;;;;;;;5074378;28;20017;-73
2022/08/02 03:54:37;;;;;;;7.75;5.63;;;;;;;;;;5074153;28;20032;-71
2022/08/02 03:57:08;;;;;;;8.15;6.28;;;;;;;;;;5073845;28;20040;-73
2022/08/02 03:59:45;;;;;;;6.53;5.75;;;;;;;;;;5072251;28;20040;-71
2022/08/02 04:02:12;;;;;;;6.70;5.70;;;;;;;;;;5073883;28;20021;-71
2022/08/02 04:04:38;;;;;;;6.32;5.55;;;;;;;;;;5073929;28;20515;-71
2022/08/02 04:07:04;;;;;;;27.65;7.57;;;;;;;;;;5073688;28;20028;-71
2022/08/02 04:09:31;;;;;;;8.38;5.20;;;;;;;;;;5071837;28;20016;-71
2022/08/02 04:11:57;;;;;;;7.93;5.97;;;;;;;;;;5073493;28;20468;-71
2022/08/02 04:14:23;;;;;;;9.20;5.72;;;;;;;;;;5073650;28;20025;-71
2022/08/02 04:16:54;;;;;;;9.23;5.28;;;;;;;;;;5073716;28;20029;-71
2022/08/02 04:19:26;;;;;;;8.13;4.97;;;;;;;;;;5073581;28;20021;-71
2022/08/02 04:21:52;;;;;;;7.55;5.50;;;;;;;;;;5073556;28;20032;-73
2022/08/02 04:24:24;;;;;;;8.98;5.63;;;;;;;;;;5073468;28;20050;-72
2022/08/02 04:26:50;;;;;;;6.72;5.35;;;;;;;;;;5073484;28;20040;-72
2022/08/02 04:29:17;;;;;;;8.60;5.55;;;;;;;;;;5073572;28;20352;-72
2022/08/02 04:31:43;;;;;;;9.95;6.25;;;;;;;;;;5073554;28;20033;-72
2022/08/02 04:34:10;;;;;;;7.18;5.45;;;;;;;;;;5084377;28;20020;-72
2022/08/02 04:36:37;;;;;;;15.95;10.18;;;;;;;;;;5074219;28;20086;-72
2022/08/02 04:39:03;;;;;;;12.32;9.50;;;;;;;;;;5073337;28;20027;-72
2022/08/02 04:41:36;;;;;;;11.43;6.63;;;;;;;;;;5073225;28;20031;-72
2022/08/02 04:44:02;;;;;;;7.78;6.45;;;;;;;;;;5073149;28;20044;-72
2022/08/02 04:46:29;;;;;;;7.50;5.75;;;;;;;;;;5073073;28;20495;-72
2022/08/02 04:48:55;;;;;;;8.80;7.88;;;;;;;;;;5073158;28;20024;-73
2022/08/02 04:51:21;;;;;;;9.45;6.07;;;;;;;;;;5073111;28;20031;-72
2022/08/02 04:53:47;;;;;;;7.32;5.93;;;;;;;;;;5072996;28;20048;-72
2022/08/02 04:56:13;;;;;;;9.80;6.53;;;;;;;;;;5073064;28;20028;-72
2022/08/02 04:58:39;;;;;;;9.43;6.40;;;;;;;;;;5072602;28;20383;-72
2022/08/02 05:01:05;;;;;;;9.57;6.80;;;;;;;;;;5072903;28;20100;-71
2022/08/02 05:03:31;;;;;;;7.00;6.13;;;;;;;;;;5072880;28;20544;-71
2022/08/02 05:05:59;;;;;;;8.63;5.93;;;;;;;;;;5072999;28;20040;-71
2022/08/02 05:08:25;;;;;;;7.22;5.50;;;;;;;;;;5071721;28;20382;-71
2022/08/02 05:10:51;;;;;;;6.53;5.63;;;;;;;;;;5072961;28;20016;-72
2022/08/02 05:13:17;;;;;;;7.55;5.82;;;;;;;;;;5072932;28;20024;-71
2022/08/02 05:15:43;;;;;;;7.88;5.32;;;;;;;;;;5072699;28;20020;-72
2022/08/02 05:18:11;;;;;;;8.00;6.20;;;;;;;;;;5072726;28;20016;-71
2022/08/02 05:20:37;;;;;;;6.38;5.55;;;;;;;;;;5072603;28;20162;-70
2022/08/02 05:23:03;;;;;;;7.75;5.95;;;;;;;;;;5072679;28;20087;-71
2022/08/02 05:25:29;;;;;;;10.30;5.93;;;;;;;;;;5072722;28;20056;-70
2022/08/02 05:27:55;;;;;;;9.20;5.78;;;;;;;;;;5072272;28;20025;-71
2022/08/02 05:30:21;;;;;;;6.60;5.70;;;;;;;;;;5072688;28;20025;-72
2022/08/02 05:32:49;;;;;;;7.88;5.70;;;;;;;;;;5072589;28;20487;-71
2022/08/02 05:35:19;;;;;;;8.98;6.00;;;;;;;;;;5072263;28;20075;-72
2022/08/02 05:37:46;;;;;;;9.60;5.63;;;;;;;;;;5072637;28;20439;-72
2022/08/02 05:40:12;;;;;;;7.15;6.03;;;;;;;;;;5072369;28;20039;-72
2022/08/02 05:42:38;;;;;;;6.20;5.40;;;;;;;;;;5072265;28;20021;-72
2022/08/02 05:45:04;;;;;;;7.72;4.75;;;;;;;;;;5072370;28;20056;-72
2022/08/02 05:47:31;;;;;;;6.47;5.03;;;;;;;;;;5072326;28;20103;-71
2022/08/02 05:49:57;;;;;;;7.32;5.07;;;;;;;;;;5072382;28;20032;-72
2022/08/02 05:52:25;;;;;;;7.03;4.82;;;;;;;;;;5072443;28;20017;-73
2022/08/02 05:55:15;;;;;;;6.82;5.22;;;;;;;;;;5072441;28;20077;-73
2022/08/02 05:57:48;;;;;;;7.03;4.88;;;;;;;;;;5030000;28;20057;-72
2022/08/02 06:00:15;;;;;;;8.75;6.18;;;;;;;;;;5045791;28;20165;-72
2022/08/02 06:02:44;;;;;;;8.98;6.45;;;;;;;;;;5050186;28;20536;-72
2022/08/02 06:05:11;;;;;;;7.00;5.00;;;;;;;;;;5049792;28;20524;-71
2022/08/02 06:07:40;;;;;;;10.73;6.38;;;;;;;;;;5026955;28;20025;-71
2022/08/02 06:10:06;;;;;;;8.73;5.10;;;;;;;;;;5026238;28;20067;-71
2022/08/02 06:12:35;;;;;;;6.32;5.43;;;;;;;;;;5049828;28;20025;-71
2022/08/02 06:15:03;;;;;;;8.07;6.45;;;;;;;;;;5049917;28;20037;-71
2022/08/02 06:17:30;;;;;;;5.75;5.13;;;;;;;;;;5050051;28;20025;-73
2022/08/02 06:19:59;;;;;;;7.57;5.30;;;;;;;;;;5050003;28;20021;-73
2022/08/02 06:22:28;;;;;;;8.43;4.95;;;;;;;;;;5049865;28;20044;-72
2022/08/02 06:24:55;;;;;;;6.28;4.60;;;;;;;;;;5049991;28;20497;-72
2022/08/02 06:27:21;;;;;;;5.57;4.80;;;;;;;;;;5049722;28;20045;-72
2022/08/02 06:29:48;;;;;;;6.10;5.10;;;;;;;;;;5050195;28;20032;-72
2022/08/02 06:32:18;;;;;;;13.27;6.00;;;;;;;;;;5050396;28;20037;-72
2022/08/02 06:34:45;;;;;;;7.43;5.18;;;;;;;;;;5066863;28;20186;-72
2022/08/02 06:37:11;;;;;;;8.85;5.93;;;;;;;;;;5087694;28;20383;-72
2022/08/02 06:39:45;;;;;;;5.30;4.80;;;;;;;;;;5075639;28;20020;-72
2022/08/02 06:42:12;;;;;;;6.45;4.97;;;;;;;;;;5075581;28;20027;-72
2022/08/02 06:44:38;;;;;;;7.13;4.75;;;;;;;;;;5075744;28;20024;-72
2022/08/02 06:47:04;;;;;;;7.80;4.60;;;;;;;;;;5075200;28;20024;-72
2022/08/02 06:49:30;;;;;;;5.25;4.53;;;;;;;;;;5075321;28;20028;-72
2022/08/02 06:51:56;;;;;;;7.55;5.22;;;;;;;;;;5075086;28;20017;-73
2022/08/02 06:54:23;;;;;;;7.95;4.90;;;;;;;;;;5075274;28;20467;-72
2022/08/02 06:56:49;;;;;;;6.63;4.88;;;;;;;;;;5075152;28;20078;-72
2022/08/02 06:59:15;;;;;;;7.60;5.10;;;;;;;;;;5073452;28;20025;-72
2022/08/02 07:01:41;;;;;;;8.60;4.90;;;;;;;;;;5075143;28;20054;-71
2022/08/02 07:04:07;;;;;;;8.32;5.28;;;;;;;;;;5074720;28;20099;-72
2022/08/02 07:06:33;;;;;;;8.45;6.82;;;;;;;;;;5074808;28;20086;-72
2022/08/02 07:08:59;;;;;;;7.07;5.15;;;;;;;;;;5074791;28;20012;-72
2022/08/02 07:11:25;;;;;;;8.68;4.65;;;;;;;;;;5074906;28;20032;-72
2022/08/02 07:13:51;;;;;;;7.38;4.60;;;;;;;;;;5074841;28;20020;-72
2022/08/02 07:16:18;;;;;;;9.88;6.72;;;;;;;;;;5074793;28;20035;-72
2022/08/02 07:18:44;;;;;;;9.07;5.38;;;;;;;;;;5074938;28;20042;-72
2022/08/02 07:21:10;;;;;;;4.68;4.18;;;;;;;;;;5074736;28;20025;-72
2022/08/02 07:23:36;;;;;;;5.18;4.38;;;;;;;;;;5073069;28;20040;-72
2022/08/02 07:26:02;;;;;;;9.70;5.13;;;;;;;;;;5074405;28;20033;-72
2022/08/02 07:28:28;;;;;;;7.38;5.28;;;;;;;;;;5072954;28;20024;-73
2022/08/02 07:30:54;;;;;;;6.03;4.43;;;;;;;;;;5074470;28;20024;-72
2022/08/02 07:33:20;;;;;;;4.75;4.03;;;;;;;;;;5078612;28;20024;-72
2022/08/02 07:35:46;;;;;;;7.65;4.70;;;;;;;;;;5084285;28;20407;-72
2022/08/02 07:38:12;;;;;;;6.47;4.63;;;;;;;;;;5074236;28;20051;-72
2022/08/02 07:40:38;;;;;;;6.22;4.22;;;;;;;;;;5073140;28;20034;-72
2022/08/02 07:43:04;;;;;;;5.65;4.05;;;;;;;;;;5074267;28;20028;-72
2022/08/02 07:45:31;;;;;;;6.07;4.38;;;;;;;;;;5074277;28;20487;-72
2022/08/02 07:47:57;;;;;;;6.90;4.50;;;;;;;;;;5074533;28;20055;-72
2022/08/02 07:50:23;;;;;;;10.48;5.65;;;;;;;;;;5073973;28;20023;-73
2022/08/02 07:52:50;;;;;;;9.45;5.63;;;;;;;;;;5073951;28;20052;-72
2022/08/02 07:55:17;;;;;;;10.18;7.93;;;;;;;;;;5072680;28;20032;-72
2022/08/02 07:57:43;;;;;;;7.63;4.82;;;;;;;;;;5074164;28;20021;-73
2022/08/02 08:00:09;;;;;;;7.28;4.22;;;;;;;;;;5074114;28;20063;-72
2022/08/02 08:02:36;;;;;;;11.15;4.35;;;;;;;;;;5073924;28;20028;-72
2022/08/02 08:05:02;;;;;;;5.95;5.10;;;;;;;;;;5074030;28;20041;-73
2022/08/02 08:07:28;;;;;;;7.50;5.78;;;;;;;;;;5073726;28;20104;-72
2022/08/02 08:09:54;;;;;;;8.82;5.75;;;;;;;;;;5073983;28;20100;-71
2022/08/02 08:12:20;;;;;;;10.32;4.22;;;;;;;;;;5073631;28;20025;-72
2022/08/02 08:14:46;;;;;;;14.18;6.90;;;;;;;;;;5073546;28;20028;-73
2022/08/02 08:17:13;;;;;;;5.78;4.13;;;;;;;;;;5073745;28;20048;-73
2022/08/02 08:19:39;;;;;;;3.65;3.33;;;;;;;;;;5071669;28;20097;-73
2022/08/02 08:22:05;;;;;;;5.93;3.75;;;;;;;;;;5073332;28;20024;-73
2022/08/02 08:24:31;;;;;;;4.70;3.83;;;;;;;;;;5073270;28;20058;-73
2022/08/02 08:26:57;;;;;;;5.07;4.28;;;;;;;;;;5073571;28;20083;-74
2022/08/02 08:29:25;;;;;;;11.20;7.75;;;;;;;;;;5073176;28;20103;-73
2022/08/02 08:31:51;;;;;;;12.43;6.03;;;;;;;;;;5073460;28;20029;-73
2022/08/02 08:34:17;;;;;;;6.57;4.72;;;;;;;;;;5084042;28;20034;-73
2022/08/02 08:36:43;;;;;;;6.10;4.75;;;;;;;;;;5074945;28;20041;-73
2022/08/02 08:39:09;;;;;;;9.05;5.88;;;;;;;;;;5073270;28;20082;-73
2022/08/02 08:41:36;;;;;;;7.50;6.13;;;;;;;;;;5073037;28;20494;-73
2022/08/02 08:44:02;;;;;;;6.25;4.40;;;;;;;;;;5073142;28;20020;-73
2022/08/02 08:46:33;;;;;;;7.03;4.68;;;;;;;;;;5072860;28;20166;-73
2022/08/02 08:48:59;;;;;;;;;;;;;;;;;;5071738;28;20062;-72
2022/08/02 08:51:27;;;;;;;6.93;4.60;;;;;;;;;;5073159;28;19904;-73
2022/08/02 08:53:54;;;;;;;4.80;3.92;;;;;;;;;;5072737;28;20016;-73
2022/08/02 08:56:20;;;;;;;6.15;3.92;;;;;;;;;;5072652;28;20487;-74
2022/08/02 08:58:46;;;;;;;6.47;3.97;;;;;;;;;;5072657;28;20054;-73
2022/08/02 09:01:14;;;;;;;4.93;4.38;;;;;;;;;;5071768;28;20066;-73
2022/08/02 09:03:40;;;;;;;6.47;3.80;;;;;;;;;;5072871;28;20035;-73
2022/08/02 09:06:06;;;;;;;6.30;4.50;;;;;;;;;;5072825;28;20033;-73
2022/08/02 09:08:32;;;;;;;4.18;3.58;;;;;;;;;;5072742;28;20021;-73
2022/08/02 09:10:58;;;;;;;4.18;3.78;;;;;;;;;;5072930;28;20382;-73
2022/08/02 09:13:29;;;;;;;4.75;4.10;;;;;;;;;;5072704;28;20051;-73
2022/08/02 09:15:55;;;;;;;4.18;3.75;;;;;;;;;;5072657;28;20016;-73
2022/08/02 09:18:28;;;;;;;4.80;3.97;;;;;;;;;;5071648;28;20080;-73
2022/08/02 09:20:56;;;;;;;6.72;4.00;;;;;;;;;;5071127;28;20051;-73
2022/08/02 09:23:22;;;;;;;5.75;4.10;;;;;;;;;;5071365;28;20553;-73
2022/08/02 09:26:14;;;;;;;5.03;4.05;;;;;;;;;;5072606;28;20066;-73
2022/08/02 09:28:42;;;;;;;6.30;4.40;;;;;;;;;;5070471;28;20068;-73
2022/08/02 09:31:10;;;;;;;5.47;3.63;;;;;;;;;;5072395;28;20051;-73
2022/08/02 09:33:37;;;;;;;5.95;3.47;;;;;;;;;;5078775;28;20031;-73
2022/08/02 09:36:07;;;;;;;4.40;3.90;;;;;;;;;;5079946;28;20392;-74
2022/08/02 09:38:33;;;;;;;;;;;;;;;;;;5072816;28;20104;-73
2022/08/02 09:41:00;;;;;;;7.60;5.50;;;;;;;;;;5072522;28;20019;-73
2022/08/02 09:43:36;;;;;;;4.72;4.00;;;;;;;;;;5072242;28;20057;-73
2022/08/02 09:46:22;;;;;;;6.68;4.07;;;;;;;;;;5072353;28;20498;-73
2022/08/02 09:48:48;;;;;;;7.38;3.63;;;;;;;;;;5072297;28;20020;-73
2022/08/02 09:51:21;;;;;;;3.65;3.28;;;;;;;;;;5072320;28;20047;-73
2022/08/02 09:53:48;;;;;;;5.32;4.20;;;;;;;;;;5072143;28;20356;-73
2022/08/02 09:56:16;;;;;;;6.40;4.38;;;;;;;;;;5070994;28;20094;-74
2022/08/02 09:58:42;;;;;;;4.07;3.67;;;;;;;;;;5072061;28;20021;-73
2022/08/02 10:01:08;;;;;;;8.27;4.05;;;;;;;;;;5072290;28;20025;-73
2022/08/02 10:03:34;;;;;;;7.38;4.55;;;;;;;;;;5072225;28;20021;-73
2022/08/02 10:06:00;;;;;;;8.27;4.28;;;;;;;;;;5072154;28;20502;-73
2022/08/02 10:08:27;;;;;;;8.10;7.25;;;;;;;;;;5074836;28;20024;-74
2022/08/02 10:11:00;;;;;;;6.38;4.03;;;;;;;;;;5075989;28;20136;-74
2022/08/02 10:13:33;;;;;;;4.57;3.70;;;;;;;;;;5075662;28;20016;-73
2022/08/02 10:16:01;;;;;;;7.45;5.78;;;;;;;;;;5075832;28;20483;-74
2022/08/02 10:18:28;;;;;;;5.18;4.13;;;;;;;;;;5074698;28;20031;-74
2022/08/02 10:20:55;;;;;;;4.78;4.30;;;;;;;;;;5075854;28;20023;-73
2022/08/02 10:23:24;;;;;;;4.75;4.25;;;;;;;;;;5075869;28;20040;-73
2022/08/02 10:25:52;;;;;;;5.03;3.25;;;;;;;;;;5075915;28;20033;-73
2022/08/02 10:28:19;;;;;;;5.75;3.60;;;;;;;;;;5075347;28;20055;-73
2022/08/02 10:30:47;;;;;;;6.13;3.70;;;;;;;;;;5075793;28;20025;-73
2022/08/02 10:33:14;;;;;;;3.78;3.38;;;;;;;;;;5078883;28;20153;-74
2022/08/02 10:35:40;;;;;;;5.15;3.50;;;;;;;;;;5086165;28;20052;-73
2022/08/02 10:38:10;;;;;;;6.60;3.97;;;;;;;;;;5075813;28;20058;-73
2022/08/02 10:40:45;;;;;;;7.68;4.05;;;;;;;;;;5074289;28;20024;-73
2022/08/02 10:43:12;;;;;;;4.88;3.67;;;;;;;;;;5075322;28;20470;-73
2022/08/02 10:45:39;;;;;;;5.60;3.90;;;;;;;;;;5075227;28;20479;-74
2022/08/02 10:48:09;;;;;;;5.60;3.83;;;;;;;;;;5075362;28;20070;-73
2022/08/02 10:50:47;;;;;;;6.53;4.07;;;;;;;;;;5075475;28;20095;-74
2022/08/02 10:53:25;;;;;;;5.35;4.03;;;;;;;;;;5075218;28;20256;-73
2022/08/02 10:55:52;;;;;;;6.75;4.45;;;;;;;;;;5075287;28;20033;-72
2022/08/02 10:58:19;;;;;;;3.72;3.38;;;;;;;;;;5075196;28;20017;-73
2022/08/02 11:00:45;;;;;;;4.25;3.45;;;;;;;;;;5074931;28;20103;-73
2022/08/02 11:03:29;;;;;;;3.92;3.30;;;;;;;;;;5073990;28;20024;-73
2022/08/02 11:06:02;;;;;;;5.03;3.67;;;;;;;;;;5075301;28;20041;-73
2022/08/02 11:08:28;;;;;;;9.95;4.88;;;;;;;;;;5075167;28;20016;-72
2022/08/02 11:11:07;;;;;;;5.57;4.05;;;;;;;;;;5073099;28;20039;-73
2022/08/02 11:13:53;;;;;;;7.55;4.15;;;;;;;;;;5074983;28;20024;-73
2022/08/02 11:16:19;;;;;;;7.13;3.90;;;;;;;;;;5074927;28;20403;-73
2022/08/02 11:18:51;;;;;;;7.88;4.03;;;;;;;;;;5074289;28;20418;-73
2022/08/02 11:21:21;;;;;;;6.03;3.88;;;;;;;;;;5074743;28;20578;-73
2022/08/02 11:23:48;;;;;;;6.15;3.65;;;;;;;;;;5074979;28;20020;-73
2022/08/02 11:26:29;;;;;;;5.57;3.83;;;;;;;;;;5074748;28;20107;-73
2022/08/02 11:28:56;;;;;;;6.55;3.85;;;;;;;;;;5074626;28;20023;-73
2022/08/02 11:31:22;;;;;;;8.50;4.78;;;;;;;;;;5074402;28;20028;-73
2022/08/02 11:33:49;;;;;;;9.48;5.25;;;;;;;;;;5082628;28;20077;-74
2022/08/02 11:36:16;;;;;;;5.68;4.35;;;;;;;;;;5080015;28;20044;-73
2022/08/02 11:38:42;;;;;;;4.68;3.92;;;;;;;;;;5072770;28;20112;-73
2022/08/02 11:41:09;;;;;;;4.97;3.70;;;;;;;;;;5074703;28;20107;-73
2022/08/02 11:43:36;;;;;;;4.82;3.50;;;;;;;;;;5072804;28;20012;-73
2022/08/02 11:46:03;;;;;;;3.40;3.00;;;;;;;;;;5073954;28;20039;-72
2022/08/02 11:48:30;;;;;;;4.75;4.25;;;;;;;;;;5072877;28;20036;-73
2022/08/02 11:51:04;;;;;;;3.92;3.45;;;;;;;;;;5074238;28;20360;-72
2022/08/02 11:53:33;;;;;;;5.47;4.25;;;;;;;;;;5074035;28;20434;-72
2022/08/02 11:55:59;;;;;;;9.88;4.10;;;;;;;;;;5072772;28;20395;-73
2022/08/02 11:58:25;;;;;;;4.55;3.95;;;;;;;;;;5073683;28;20387;-72
2022/08/02 12:00:53;;;;;;;4.00;3.42;;;;;;;;;;5073823;28;20020;-73
2022/08/02 12:03:19;;;;;;;6.00;3.60;;;;;;;;;;5073953;28;20035;-73
2022/08/02 12:05:48;;;;;;;6.40;4.07;;;;;;;;;;5073637;28;20552;-73
2022/08/02 12:08:15;;;;;;;5.95;4.35;;;;;;;;;;5074270;28;20043;-73
2022/08/02 12:10:48;;;;;;;5.47;4.70;;;;;;;;;;5073782;28;20111;-73
2022/08/02 12:13:14;;;;;;;5.65;3.75;;;;;;;;;;5073639;28;20469;-74
2022/08/02 12:15:43;;;;;;;5.07;3.50;;;;;;;;;;5073429;28;20023;-73
2022/08/02 12:21:20;;;;;;;9.40;4.32;;;;;;;;;;5073949;28;20086;-73
2022/08/02 12:23:46;;;;;;;7.22;4.07;;;;;;;;;;5074201;28;20032;-73
2022/08/02 12:26:13;;;;;;;9.63;4.00;;;;;;;;;;5073457;28;20079;-72
2022/08/02 12:28:41;;;;;;;5.05;4.40;;;;;;;;;;5073624;28;20016;-72
2022/08/02 12:31:14;;;;;;;8.50;4.25;;;;;;;;;;5072738;28;20474;-72
2022/08/02 12:33:50;;;;;;;11.77;4.53;;;;;;;;;;5080473;28;20050;-73
2022/08/02 12:36:26;;;;;;;7.25;4.53;;;;;;;;;;5078509;28;20513;-73
2022/08/02 12:38:57;;;;;;;6.00;4.13;;;;;;;;;;5073401;28;20017;-73
2022/08/02 12:41:23;;;;;;;4.10;3.45;;;;;;;;;;5073054;28;20063;-73
2022/08/02 12:43:50;;;;;;;4.13;3.50;;;;;;;;;;5073181;28;20009;-73
2022/08/02 12:46:17;;;;;;;7.10;4.03;;;;;;;;;;5073011;28;20028;-73
2022/08/02 12:48:43;;;;;;;7.60;4.20;;;;;;;;;;5073007;28;20008;-73
2022/08/02 12:51:42;;;;;;;5.30;3.88;;;;;;;;;;5073480;28;20028;-74
2022/08/02 12:54:13;;;;;;;6.32;3.88;;;;;;;;;;5038245;28;20040;-73
2022/08/02 12:56:39;;;;;;;4.40;3.70;;;;;;;;;;5050693;28;20094;-72
2022/08/02 12:59:05;;;;;;;5.43;3.85;;;;;;;;;;5028033;28;20017;-73
2022/08/02 13:01:31;;;;;;;7.60;5.00;;;;;;;;;;5030614;28;20022;-73
2022/08/02 13:03:58;;;;;;;8.18;4.28;;;;;;;;;;5048857;28;20033;-72
2022/08/02 13:06:25;;;;;;;4.65;3.70;;;;;;;;;;5023715;28;20139;-73
2022/08/02 13:08:53;;;;;;;4.93;4.07;;;;;;;;;;5047078;28;20061;-74
2022/08/02 13:11:19;;;;;;;5.20;3.88;;;;;;;;;;5050741;28;20479;-72
2022/08/02 13:13:45;;;;;;;8.85;4.70;;;;;;;;;;5050614;28;20100;-72
2022/08/02 13:16:12;;;;;;;7.07;3.65;;;;;;;;;;5050336;28;20033;-72
2022/08/02 13:18:38;;;;;;;7.53;4.00;;;;;;;;;;5050657;28;20028;-72
2022/08/02 13:21:05;;;;;;;5.68;4.25;;;;;;;;;;5050329;28;20427;-72
2022/08/02 13:23:32;;;;;;;4.78;3.85;;;;;;;;;;5050537;28;20086;-72
2022/08/02 13:25:58;;;;;;;4.10;3.65;;;;;;;;;;5050260;28;20596;-72
2022/08/02 13:28:24;;;;;;;8.07;4.78;;;;;;;;;;5050467;28;20488;-73
2022/08/02 13:30:50;;;;;;;7.50;3.97;;;;;;;;;;5070061;28;20032;-73
2022/08/02 13:33:16;;;;;;;7.05;4.30;;;;;;;;;;5076341;28;20077;-73
2022/08/02 13:35:43;;;;;;;6.32;4.68;;;;;;;;;;5082708;28;20098;-73
2022/08/02 13:38:10;;;;;;;6.00;4.60;;;;;;;;;;5072441;28;20028;-73
2022/08/02 13:41:21;;;;;;;6.45;4.28;;;;;;;;;;5072752;28;20028;-73
2022/08/02 13:43:22;;;;;;;9.40;4.10;;;;;;;;;;5062476;28;20025;-72
2022/08/02 13:45:48;;;;;;;4.72;4.22;;;;;;;;;;5076322;28;20062;-72
2022/08/02 13:48:14;;;;;;;6.95;3.90;;;;;;;;;;5076480;28;20097;-72
2022/08/02 13:50:40;;;;;;;6.30;4.95;;;;;;;;;;5076609;28;20081;-74
2022/08/02 13:53:06;;;;;;;6.05;4.80;;;;;;;;;;5076506;28;20043;-73
2022/08/02 13:55:32;;;;;;;6.57;4.30;;;;;;;;;;5076344;28;20015;-73
2022/08/02 13:57:59;;;;;;;4.90;3.72;;;;;;;;;;5075073;28;20075;-72
2022/08/02 14:00:25;;;;;;;6.07;4.13;;;;;;;;;;5076013;28;20020;-73
2022/08/02 14:02:51;;;;;;;4.75;4.00;;;;;;;;;;5076482;28;20044;-73
2022/08/02 14:05:17;;;;;;;5.93;4.03;;;;;;;;;;5076192;28;20109;-73
2022/08/02 14:07:43;;;;;;;5.63;3.63;;;;;;;;;;5076313;28;20037;-72
2022/08/02 14:10:09;;;;;;;7.22;4.18;;;;;;;;;;5076371;28;20048;-72
2022/08/02 14:12:35;;;;;;;6.60;3.95;;;;;;;;;;5075926;28;20017;-72
2022/08/02 14:15:01;;;;;;;8.27;3.50;;;;;;;;;;5075823;28;20024;-72
2022/08/02 14:17:27;;;;;;;6.90;4.13;;;;;;;;;;5074372;28;20416;-72
2022/08/02 14:19:53;;;;;;;9.82;4.20;;;;;;;;;;5076102;28;20089;-72
2022/08/02 14:22:19;;;;;;;6.93;4.43;;;;;;;;;;5075686;28;20024;-72
2022/08/02 14:24:45;;;;;;;5.07;4.07;;;;;;;;;;5075878;28;20066;-72
2022/08/02 14:27:12;;;;;;;6.93;4.03;;;;;;;;;;5074687;28;20082;-72
2022/08/02 14:29:38;;;;;;;4.68;3.70;;;;;;;;;;5075566;28;20023;-72
2022/08/02 14:32:05;;;;;;;6.30;4.30;;;;;;;;;;5075671;28;20450;-72
2022/08/02 14:34:31;;;;;;;5.35;4.03;;;;;;;;;;5089810;28;20032;-72
2022/08/02 14:36:57;;;;;;;4.60;3.33;;;;;;;;;;5089720;28;20502;-73
2022/08/02 14:39:23;;;;;;;5.57;4.18;;;;;;;;;;5075468;28;20035;-72
2022/08/02 14:41:49;;;;;;;4.00;3.47;;;;;;;;;;5089761;28;20017;-72
2022/08/02 14:44:15;;;;;;;3.85;3.35;;;;;;;;;;5075430;28;20024;-72
2022/08/02 14:46:42;;;;;;;5.68;3.85;;;;;;;;;;5075178;28;20035;-73
2022/08/02 14:49:09;;;;;;;5.57;4.10;;;;;;;;;;5075775;28;20009;-72
2022/08/02 14:51:36;;;;;;;5.93;3.80;;;;;;;;;;5075208;28;20028;-73
2022/08/02 14:54:04;;;;;;;5.15;4.07;;;;;;;;;;5074617;28;20019;-73